createdAt,value
2023-02-15T00:01:28.812Z,11.75
2023-02-15T00:04:44.784Z,10.85
2023-02-15T00:07:47.409Z,10.57
2023-02-15T00:10:48.689Z,10.87
2023-02-15T00:13:51.233Z,11.05
2023-02-15T00:16:54.648Z,10.70
2023-02-15T00:19:55.964Z,10.95
2023-02-15T00:22:58.670Z,10.97
2023-02-15T00:26:07.359Z,10.13
2023-02-15T00:29:11.415Z,10.50
2023-02-15T00:32:13.363Z,10.00
2023-02-15T00:35:15.968Z,9.90
2023-02-15T00:38:18.509Z,10.07
2023-02-15T00:41:19.795Z,9.13
2023-02-15T00:44:22.312Z,10.32
2023-02-15T00:47:26.732Z,10.73
2023-02-15T00:50:27.985Z,10.13
2023-02-15T00:53:31.858Z,10.23
2023-02-15T00:56:34.376Z,11.23
2023-02-15T00:59:35.629Z,10.55
2023-02-15T01:02:38.782Z,10.38
2023-02-15T01:05:40.670Z,9.73
2023-02-15T01:08:43.821Z,9.97
2023-02-15T01:11:46.326Z,9.50
2023-02-15T01:14:47.634Z,9.38
2023-02-15T01:17:54.072Z,9.65
2023-02-15T01:20:55.353Z,10.20
2023-02-15T01:23:57.910Z,9.53
2023-02-15T01:26:59.247Z,10.17
2023-02-15T01:30:01.769Z,10.05
2023-02-15T01:33:05.301Z,8.80
2023-02-15T01:36:07.118Z,9.07
2023-02-15T01:42:31.905Z,10.20
2023-02-15T01:45:33.414Z,10.15
2023-02-15T01:48:41.357Z,10.20
2023-02-15T01:51:45.886Z,9.77
2023-02-15T01:54:49.856Z,9.87
2023-02-15T01:57:51.984Z,9.27
2023-02-15T02:00:55.797Z,10.15
2023-02-15T02:04:03.235Z,9.40
2023-02-15T02:07:07.971Z,9.27
2023-02-15T02:10:12.290Z,10.27
2023-02-15T02:13:14.915Z,9.93
2023-02-15T02:16:22.396Z,10.25
2023-02-15T02:20:00.324Z,9.80
2023-02-15T02:23:29.283Z,9.70
2023-02-15T02:27:08.765Z,10.20
2023-02-15T02:30:47.765Z,9.23
2023-02-15T02:33:58.075Z,9.25
2023-02-15T02:37:09.877Z,9.75
2023-02-15T02:40:18.438Z,9.87
2023-02-15T02:43:27.839Z,9.23
2023-02-15T02:46:33.312Z,8.50
2023-02-15T02:49:38.523Z,10.18
2023-02-15T02:52:42.327Z,9.65
2023-02-15T02:55:48.611Z,8.90
2023-02-15T02:58:54.683Z,8.95
2023-02-15T03:02:01.656Z,9.23
2023-02-15T03:05:10.743Z,8.80
2023-02-15T03:08:14.200Z,9.35
2023-02-15T03:14:40.454Z,9.52
2023-02-15T03:17:45.464Z,8.85
2023-02-15T03:27:37.309Z,8.93
2023-02-15T03:34:07.400Z,10.27
2023-02-15T03:37:17.528Z,8.77
2023-02-15T03:40:40.824Z,9.27
2023-02-15T03:43:50.478Z,8.93
2023-02-15T03:46:57.525Z,9.35
2023-02-15T03:50:04.113Z,9.70
2023-02-15T03:53:10.393Z,9.55
2023-02-15T04:03:23.100Z,9.65
2023-02-15T04:10:05.276Z,10.25
2023-02-15T04:13:06.547Z,10.30
2023-02-15T04:19:48.089Z,9.85
2023-02-15T04:23:08.719Z,9.73
2023-02-15T04:26:11.891Z,10.40
2023-02-15T04:32:38.962Z,10.47
2023-02-15T04:35:41.486Z,9.85
2023-02-15T04:38:44.065Z,10.95
2023-02-15T04:45:07.869Z,10.18
2023-02-15T04:48:10.433Z,10.83
2023-02-15T04:51:11.945Z,11.32
2023-02-15T04:54:14.683Z,11.70
2023-02-15T04:57:16.784Z,10.15
2023-02-15T05:00:20.042Z,11.40
2023-02-15T05:03:21.344Z,10.37
2023-02-15T05:06:23.880Z,11.00
2023-02-15T05:09:25.288Z,11.77
2023-02-15T05:12:28.473Z,10.95
2023-02-15T05:15:31.028Z,10.73
2023-02-15T05:18:34.461Z,11.60
2023-02-15T05:21:35.748Z,10.75
2023-02-15T05:28:21.260Z,10.40
2023-02-15T05:31:22.990Z,11.85
2023-02-15T05:34:25.784Z,11.57
2023-02-15T05:37:27.076Z,12.25
2023-02-15T05:40:29.748Z,11.77
2023-02-15T05:43:32.458Z,11.35
2023-02-15T05:46:34.989Z,11.57
2023-02-15T05:49:36.347Z,12.07
2023-02-15T05:52:39.032Z,11.43
2023-02-15T05:55:40.941Z,11.60
2023-02-15T05:59:04.153Z,10.93
2023-02-15T06:02:06.661Z,11.85
2023-02-15T06:05:09.940Z,11.03
2023-02-15T06:08:11.186Z,12.57
2023-02-15T06:11:13.887Z,12.23
2023-02-15T06:14:15.931Z,12.20
2023-02-15T06:17:18.741Z,10.90
2023-02-15T06:20:20.023Z,11.97
2023-02-15T06:23:22.560Z,12.50
2023-02-15T06:26:23.935Z,13.75
2023-02-15T06:29:27.173Z,12.98
2023-02-15T06:32:28.483Z,13.27
2023-02-15T06:35:31.016Z,11.30
2023-02-15T06:38:32.334Z,12.52
2023-02-15T06:41:34.935Z,14.02
2023-02-15T06:44:36.868Z,13.55
2023-02-15T06:47:39.402Z,13.40
2023-02-15T06:50:40.851Z,13.03
2023-02-15T06:53:44.278Z,13.60
2023-02-15T06:56:46.820Z,12.98
2023-02-15T06:59:50.079Z,12.65
2023-02-15T07:02:55.768Z,13.02
2023-02-15T07:05:59.005Z,13.73
2023-02-15T07:09:00.370Z,14.02
2023-02-15T07:12:19.652Z,14.13
2023-02-15T07:15:22.462Z,16.02
2023-02-15T07:18:24.992Z,16.00
2023-02-15T07:21:26.473Z,15.63
2023-02-15T07:24:29.100Z,15.38
2023-02-15T07:27:32.063Z,17.55
2023-02-15T07:30:35.466Z,15.13
2023-02-15T07:33:36.740Z,16.65
2023-02-15T07:36:39.295Z,15.97
2023-02-15T07:39:40.547Z,17.38
2023-02-15T07:42:43.159Z,18.23
2023-02-15T07:45:45.127Z,16.83
2023-02-15T07:48:47.612Z,16.27
2023-02-15T07:51:48.873Z,17.42
2023-02-15T07:54:51.385Z,16.33
2023-02-15T07:57:54.092Z,16.80
2023-02-15T08:00:58.050Z,17.63
2023-02-15T08:03:59.786Z,17.60
2023-02-15T08:07:02.345Z,17.08
2023-02-15T08:10:03.972Z,16.67
2023-02-15T08:13:06.480Z,16.80
2023-02-15T08:16:08.408Z,16.67
2023-02-15T08:19:13.152Z,16.73
2023-02-15T08:25:36.302Z,19.48
2023-02-15T08:28:39.870Z,17.50
2023-02-15T08:31:43.789Z,17.77
2023-02-15T08:34:45.203Z,16.85
2023-02-15T08:37:47.740Z,17.05
2023-02-15T08:40:48.999Z,18.25
2023-02-15T08:43:55.094Z,18.20
2023-02-15T08:47:02.793Z,17.40
2023-02-15T08:50:06.342Z,18.17
2023-02-15T08:53:07.623Z,17.45
2023-02-15T08:59:31.343Z,17.10
2023-02-15T09:02:33.269Z,17.17
2023-02-15T09:05:35.967Z,16.48
2023-02-15T09:08:37.731Z,15.50
2023-02-15T09:11:42.181Z,15.10
2023-02-15T09:14:44.958Z,18.10
2023-02-15T09:17:46.917Z,17.23
2023-02-15T09:20:50.507Z,16.90
2023-02-15T09:23:56.879Z,16.23
2023-02-15T09:26:59.355Z,16.40
2023-02-15T09:30:00.756Z,16.43
2023-02-15T09:33:04.096Z,17.07
2023-02-15T09:36:06.473Z,15.88
2023-02-15T09:39:11.122Z,16.73
2023-02-15T09:42:40.107Z,15.40
2023-02-15T09:45:56.046Z,15.67
2023-02-15T09:49:06.653Z,16.87
2023-02-15T09:56:08.513Z,15.38
2023-02-15T09:59:17.277Z,15.18
2023-02-15T10:02:38.260Z,15.23
2023-02-15T10:05:55.188Z,15.73
2023-02-15T10:09:25.320Z,14.95
2023-02-15T10:12:48.130Z,15.95
2023-02-15T10:16:08.226Z,14.45
2023-02-15T10:19:16.903Z,15.90
2023-02-15T10:22:34.323Z,15.00
2023-02-15T10:25:45.882Z,15.45
2023-02-15T10:28:51.344Z,14.15
2023-02-15T10:32:00.346Z,15.23
2023-02-15T10:35:07.566Z,14.63
2023-02-15T10:38:22.668Z,14.57
2023-02-15T10:41:39.422Z,15.45
2023-02-15T10:44:53.136Z,15.02
2023-02-15T10:48:17.950Z,15.77
2023-02-15T10:51:33.904Z,15.77
2023-02-15T10:58:12.968Z,14.88
2023-02-15T11:01:23.559Z,15.15
2023-02-15T11:04:41.464Z,14.52
2023-02-15T11:07:47.733Z,14.20
2023-02-15T11:10:53.345Z,15.93
2023-02-15T11:14:06.005Z,14.32
2023-02-15T11:17:12.695Z,15.18
2023-02-15T11:20:20.776Z,14.00
2023-02-15T11:23:24.453Z,16.67
2023-02-15T11:26:33.456Z,15.10
2023-02-15T11:29:40.041Z,12.63
2023-02-15T11:32:46.431Z,14.10
2023-02-15T11:35:53.364Z,14.20
2023-02-15T11:39:04.078Z,13.53
2023-02-15T11:42:13.757Z,13.03
2023-02-15T11:45:24.858Z,13.77
2023-02-15T11:48:26.330Z,13.75
2023-02-15T11:54:54.246Z,11.53
2023-02-15T11:58:03.133Z,11.47
2023-02-15T12:04:40.897Z,11.57
2023-02-15T12:07:47.472Z,12.30
2023-02-15T12:11:00.747Z,13.13
2023-02-15T12:14:05.804Z,10.97
2023-02-15T12:17:14.232Z,10.90
2023-02-15T12:20:28.641Z,12.77
2023-02-15T12:23:31.663Z,12.57
2023-02-15T12:26:35.504Z,12.93
2023-02-15T12:33:16.339Z,12.15
2023-02-15T12:36:21.607Z,13.10
2023-02-15T12:42:47.371Z,11.20
2023-02-15T12:45:50.686Z,11.67
2023-02-15T12:49:20.414Z,11.48
2023-02-15T12:52:26.864Z,11.70
2023-02-15T12:55:31.380Z,11.02
2023-02-15T12:58:37.787Z,11.00
2023-02-15T13:01:41.782Z,12.47
2023-02-15T13:04:49.233Z,11.70
2023-02-15T13:07:52.710Z,12.40
2023-02-15T13:10:57.783Z,11.40
2023-02-15T13:14:00.946Z,11.83
2023-02-15T13:17:08.717Z,11.18
2023-02-15T13:20:19.090Z,11.63
2023-02-15T13:23:29.204Z,10.52
2023-02-15T13:26:32.004Z,11.20
2023-02-15T13:29:38.577Z,11.70
2023-02-15T13:32:43.948Z,11.18
2023-02-15T13:35:51.129Z,11.45
2023-02-15T13:39:05.183Z,12.73
2023-02-15T13:42:21.319Z,10.95
2023-02-15T13:45:38.851Z,11.90
2023-02-15T13:48:51.290Z,10.75
2023-02-15T13:55:37.114Z,11.02
2023-02-15T13:59:12.574Z,11.45
2023-02-15T14:02:46.351Z,10.67
2023-02-15T14:06:28.940Z,10.85
2023-02-15T14:09:44.823Z,10.07
2023-02-15T14:13:03.157Z,9.82
2023-02-15T14:19:42.349Z,10.50
2023-02-15T14:22:52.936Z,11.15
2023-02-15T14:25:57.696Z,10.68
2023-02-15T14:29:17.766Z,11.48
2023-02-15T14:35:48.800Z,10.67
2023-02-15T14:38:59.419Z,10.70
2023-02-15T14:42:06.417Z,10.43
2023-02-15T14:45:19.875Z,9.52
2023-02-15T14:48:26.130Z,9.55
2023-02-15T14:52:00.130Z,11.00
2023-02-15T15:01:56.952Z,9.18
2023-02-15T15:05:07.649Z,10.85
2023-02-15T15:08:27.294Z,9.33
2023-02-15T15:11:48.079Z,9.40
2023-02-15T15:14:50.223Z,9.48
2023-02-15T15:21:54.104Z,9.63
2023-02-15T15:24:58.308Z,10.50
2023-02-15T15:28:00.393Z,9.73
2023-02-15T15:31:11.044Z,9.77
2023-02-15T15:34:29.831Z,9.85
2023-02-15T15:38:00.356Z,9.25
2023-02-15T15:45:32.857Z,9.40
2023-02-15T15:52:02.785Z,9.38
2023-02-15T15:55:14.492Z,9.70
2023-02-15T15:58:19.911Z,8.80
2023-02-15T16:01:27.868Z,8.20
2023-02-15T16:04:32.373Z,9.82
2023-02-15T16:10:54.732Z,10.10
2023-02-15T16:17:22.707Z,9.35
2023-02-15T16:24:10.313Z,8.40
2023-02-15T16:27:25.405Z,9.23
2023-02-15T16:33:55.622Z,8.77
2023-02-15T16:37:15.492Z,9.00
2023-02-15T16:44:08.825Z,8.40
2023-02-15T16:47:17.030Z,8.63
2023-02-15T16:50:22.801Z,8.10
2023-02-15T16:53:27.943Z,8.97
2023-02-15T16:56:32.220Z,7.90
2023-02-15T16:59:37.883Z,8.82
2023-02-15T17:02:56.093Z,8.05
2023-02-15T17:06:01.501Z,8.60
2023-02-15T17:09:04.798Z,8.30
2023-02-15T17:12:12.037Z,8.75
2023-02-15T17:15:27.072Z,8.38
2023-02-15T17:18:32.242Z,8.70
2023-02-15T17:21:40.644Z,8.77
2023-02-15T17:24:45.303Z,8.77
2023-02-15T17:27:52.456Z,8.75
2023-02-15T17:30:57.013Z,9.18
2023-02-15T17:33:58.840Z,11.02
2023-02-15T17:37:03.767Z,11.00
2023-02-15T17:40:17.322Z,10.27
2023-02-15T17:43:19.815Z,9.88
2023-02-15T17:46:22.288Z,10.25
2023-02-15T17:49:34.172Z,10.68
2023-02-15T17:52:36.730Z,9.70
2023-02-15T17:55:43.593Z,10.50
2023-02-15T17:58:44.982Z,9.90
2023-02-15T18:02:08.362Z,11.63
2023-02-15T18:05:31.819Z,10.68
2023-02-15T18:08:53.150Z,10.85
2023-02-15T18:11:54.612Z,10.33
2023-02-15T18:14:58.191Z,10.23
2023-02-15T18:17:59.543Z,10.55
2023-02-15T18:21:02.516Z,10.27
2023-02-15T18:24:04.677Z,11.25
2023-02-15T18:27:07.397Z,11.07
2023-02-15T18:30:14.286Z,11.13
2023-02-15T18:36:51.265Z,12.60
2023-02-15T18:39:55.019Z,13.73
2023-02-15T18:42:56.699Z,13.73
2023-02-15T18:45:58.050Z,14.35
2023-02-15T18:49:00.601Z,14.93
2023-02-15T18:52:02.869Z,14.70
2023-02-15T18:55:17.083Z,16.35
2023-02-15T18:58:22.287Z,16.00
2023-02-15T19:01:23.696Z,18.63
2023-02-15T19:04:26.237Z,18.60
2023-02-15T19:07:37.522Z,17.92
2023-02-15T19:10:39.464Z,18.88
2023-02-15T19:17:01.762Z,18.55
2023-02-15T19:23:25.923Z,17.55
2023-02-15T19:26:44.602Z,17.45
2023-02-15T19:29:48.734Z,17.67
2023-02-15T19:32:51.386Z,17.40
2023-02-15T19:35:56.447Z,17.77
2023-02-15T19:38:59.002Z,17.77
2023-02-15T19:42:00.958Z,17.98
2023-02-15T19:48:23.005Z,16.85
2023-02-15T19:51:25.994Z,16.70
2023-02-15T19:54:30.024Z,15.82
2023-02-15T19:57:33.195Z,16.67
2023-02-15T20:00:34.535Z,16.87
2023-02-15T20:03:37.378Z,17.00
2023-02-15T20:06:38.862Z,17.58
2023-02-15T20:09:43.949Z,16.25
2023-02-15T20:12:47.549Z,17.40
2023-02-15T20:19:12.228Z,17.02
2023-02-15T20:22:23.015Z,16.90
2023-02-15T20:25:26.606Z,17.85
2023-02-15T20:28:31.719Z,17.95
2023-02-15T20:31:33.189Z,16.97
2023-02-15T20:34:35.780Z,16.10
2023-02-15T20:37:37.247Z,16.30
2023-02-15T20:41:00.638Z,16.70
2023-02-15T20:44:15.810Z,16.30
2023-02-15T20:47:18.969Z,17.00
2023-02-15T20:50:22.592Z,16.50
2023-02-15T20:53:25.705Z,17.75
2023-02-15T20:56:27.123Z,16.73
2023-02-15T21:09:38.018Z,17.52
2023-02-15T21:12:40.783Z,17.63
2023-02-15T21:15:42.917Z,17.88
2023-02-15T21:18:45.761Z,18.00
2023-02-15T21:21:49.962Z,16.65
2023-02-15T21:24:54.181Z,18.98
2023-02-15T21:27:56.998Z,16.92
2023-02-15T21:30:59.137Z,16.83
2023-02-15T21:34:02.204Z,17.43
2023-02-15T21:37:04.282Z,18.30
2023-02-15T21:40:15.660Z,19.02
2023-02-15T21:43:38.022Z,20.20
2023-02-15T21:50:41.085Z,18.47
2023-02-15T21:53:45.214Z,16.52
2023-02-15T21:56:49.267Z,16.30
2023-02-15T21:59:51.882Z,15.35
2023-02-15T22:02:55.662Z,15.57
2023-02-15T22:05:58.276Z,14.77
2023-02-15T22:09:00.807Z,13.95
2023-02-15T22:12:02.138Z,14.38
2023-02-15T22:15:05.676Z,14.75
2023-02-15T22:18:19.574Z,15.30
2023-02-15T22:21:22.768Z,14.23
2023-02-15T22:24:24.082Z,13.23
2023-02-15T22:27:28.893Z,13.75
2023-02-15T22:30:32.874Z,13.68
2023-02-15T22:33:36.137Z,13.38
2023-02-15T22:36:38.702Z,12.87
2023-02-15T22:39:41.675Z,13.00
2023-02-15T22:42:46.464Z,13.18
2023-02-15T22:45:49.307Z,13.07
2023-02-15T22:48:51.659Z,12.93
2023-02-15T22:51:54.254Z,12.90
2023-02-15T22:54:55.571Z,13.10
2023-02-15T22:57:58.863Z,14.10
2023-02-15T23:01:01.124Z,12.63
2023-02-15T23:04:04.907Z,12.85
2023-02-15T23:07:12.808Z,13.03
2023-02-15T23:10:21.886Z,12.98
2023-02-15T23:13:26.315Z,13.27
2023-02-15T23:16:28.928Z,12.30
2023-02-15T23:19:31.428Z,12.65
2023-02-15T23:25:54.165Z,12.55
2023-02-15T23:28:58.764Z,12.98
2023-02-15T23:32:00.266Z,13.60
2023-02-15T23:38:29.956Z,12.60
2023-02-15T23:41:31.075Z,11.60
2023-02-15T23:44:34.338Z,12.75
2023-02-15T23:47:57.780Z,12.43
2023-02-15T23:51:00.385Z,12.93
2023-02-15T23:54:02.924Z,12.93
2023-02-15T23:57:04.570Z,12.27
